Time,TemperatureF,DewpointF,PressureIn,WindDirection,WindDirectionDegrees,WindSpeedMPH,WindSpeedGustMPH,Humidity,HourlyPrecipIn,Conditions,Clouds,dailyrainin,SoftwareType,DateUTC
2013-06-06 00:03:00,63.0,62.0,29.12,North,0,0.0,0.0,98,0.00,,,0.59,,2013-06-06 04:03:00,
2013-06-06 00:13:00,63.0,62.0,29.12,North,0,0.0,0.0,98,0.00,,,0.59,,2013-06-06 04:13:00,
2013-06-06 00:23:00,63.0,62.0,29.09,North,0,0.0,0.0,98,0.00,,,0.59,,2013-06-06 04:23:00,
2013-06-06 00:33:00,63.0,62.0,29.09,North,0,0.0,0.0,98,0.00,,,0.59,,2013-06-06 04:33:00,
2013-06-06 00:42:00,63.0,62.0,29.09,North,0,0.0,0.0,98,0.00,,,0.59,,2013-06-06 04:42:00,
2013-06-06 00:53:00,63.0,62.0,29.09,North,0,0.0,0.0,98,0.00,,,0.59,,2013-06-06 04:53:00,
2013-06-06 01:02:00,63.0,62.0,29.09,North,0,0.0,0.0,98,0.00,,,0.59,,2013-06-06 05:02:00,
2013-06-06 01:12:00,63.0,62.0,29.09,North,0,0.0,0.0,98,0.00,,,0.59,,2013-06-06 05:12:00,
2013-06-06 01:23:00,62.0,61.0,29.09,North,0,0.0,0.0,98,0.00,,,0.59,,2013-06-06 05:23:00,
2013-06-06 01:32:00,62.0,61.0,29.09,North,0,0.0,0.0,98,0.00,,,0.59,,2013-06-06 05:32:00,
2013-06-06 01:42:00,62.0,61.0,29.09,North,0,0.0,0.0,98,0.00,,,0.59,,2013-06-06 05:42:00,
2013-06-06 01:52:00,61.0,60.0,29.09,North,0,0.0,0.0,98,0.00,,,0.59,,2013-06-06 05:52:00,
2013-06-06 02:02:00,61.0,60.0,29.09,North,0,0.0,0.0,98,0.00,,,0.59,,2013-06-06 06:02:00,
2013-06-06 02:12:00,61.0,60.0,29.09,North,0,0.0,0.0,98,0.00,,,0.59,,2013-06-06 06:12:00,
2013-06-06 02:22:00,61.0,60.0,29.06,North,0,0.0,0.0,98,0.00,,,0.59,,2013-06-06 06:22:00,
2013-06-06 02:33:00,61.0,60.0,29.06,North,0,0.0,0.0,98,0.00,,,0.59,,2013-06-06 06:33:00,
2013-06-06 02:42:00,61.0,60.0,29.06,North,0,0.0,0.0,98,0.00,,,0.59,,2013-06-06 06:42:00,
2013-06-06 02:52:00,61.0,60.0,29.06,North,0,0.0,0.0,98,0.00,,,0.59,,2013-06-06 06:52:00,
2013-06-06 03:02:00,60.0,59.0,29.06,North,0,0.0,0.0,98,0.00,,,0.59,,2013-06-06 07:02:00,
2013-06-06 03:12:00,60.0,59.0,29.06,North,0,0.0,0.0,98,0.00,,,0.59,,2013-06-06 07:12:00,
2013-06-06 03:22:00,60.0,59.0,29.06,North,0,0.0,0.0,98,0.00,,,0.59,,2013-06-06 07:22:00,
2013-06-06 03:32:00,60.0,59.0,29.06,North,0,0.0,0.0,98,0.00,,,0.59,,2013-06-06 07:32:00,
2013-06-06 03:42:00,60.0,59.0,29.06,North,0,0.0,0.0,98,0.00,,,0.59,,2013-06-06 07:42:00,
2013-06-06 03:52:00,60.0,59.0,29.06,North,0,0.0,0.0,98,0.00,,,0.59,,2013-06-06 07:52:00,
2013-06-06 04:02:00,61.0,60.0,29.03,North,0,0.0,0.0,98,0.00,,,0.59,,2013-06-06 08:02:00,
2013-06-06 04:12:00,61.0,60.0,29.03,North,0,0.0,0.0,98,0.00,,,0.59,,2013-06-06 08:12:00,
2013-06-06 04:22:00,61.0,60.0,29.03,North,0,0.0,0.0,98,0.00,,,0.59,,2013-06-06 08:22:00,
2013-06-06 04:32:00,61.0,60.0,29.03,North,0,0.0,0.0,98,0.00,,,0.59,,2013-06-06 08:32:00,
2013-06-06 04:42:00,61.0,60.0,29.03,North,0,0.0,0.0,98,0.00,,,0.59,,2013-06-06 08:42:00,
2013-06-06 04:52:00,61.0,60.0,29.03,North,0,0.0,0.0,98,0.00,,,0.59,,2013-06-06 08:52:00,
2013-06-06 05:02:00,61.0,60.0,29.03,North,0,0.0,0.0,98,0.00,,,0.59,,2013-06-06 09:02:00,
2013-06-06 05:12:00,61.0,60.0,29.03,North,0,0.0,0.0,98,0.00,,,0.59,,2013-06-06 09:12:00,
2013-06-06 05:22:00,61.0,60.0,29.03,North,0,0.0,0.0,98,0.00,,,0.59,,2013-06-06 09:22:00,
2013-06-06 05:33:00,61.0,60.0,29.03,North,0,0.0,0.0,98,0.00,,,0.59,,2013-06-06 09:33:00,
2013-06-06 05:43:00,61.0,60.0,29.03,North,0,0.0,0.0,98,0.00,,,0.59,,2013-06-06 09:43:00,
2013-06-06 05:53:00,62.0,61.0,29.03,North,0,0.0,0.0,98,0.00,,,0.59,,2013-06-06 09:53:00,
2013-06-06 06:03:00,62.0,61.0,29.03,North,0,0.0,0.0,98,0.00,,,0.59,,2013-06-06 10:03:00,
2013-06-06 06:12:00,62.0,61.0,29.03,North,0,0.0,0.0,98,0.00,,,0.59,,2013-06-06 10:12:00,
2013-06-06 06:23:00,62.0,61.0,29.03,North,0,0.0,0.0,98,0.00,,,0.59,,2013-06-06 10:23:00,
2013-06-06 06:33:00,61.0,60.0,29.06,North,0,0.0,0.0,98,0.00,,,0.59,,2013-06-06 10:33:00,
2013-06-06 06:42:00,61.0,60.0,29.06,North,0,0.0,0.0,98,0.00,,,0.59,,2013-06-06 10:42:00,
2013-06-06 06:52:00,61.0,60.0,29.03,NW,317,4.0,6.0,98,0.00,,,0.59,,2013-06-06 10:52:00,
2013-06-06 07:02:00,61.0,60.0,29.03,NW,317,4.0,6.0,98,0.00,,,0.59,,2013-06-06 11:02:00,
2013-06-06 07:12:00,61.0,60.0,29.03,NW,317,4.0,6.0,98,0.00,,,0.59,,2013-06-06 11:12:00,
2013-06-06 07:23:00,61.0,60.0,29.03,NW,310,4.0,5.0,98,0.00,,,0.59,,2013-06-06 11:23:00,
2013-06-06 07:32:00,62.0,61.0,29.03,North,0,0.0,5.0,98,0.00,,,0.59,,2013-06-06 11:32:00,
2013-06-06 07:42:00,62.0,61.0,29.03,North,0,0.0,5.0,98,0.00,,,0.59,,2013-06-06 11:42:00,
2013-06-06 07:52:00,63.0,62.0,29.03,WNW,303,4.0,5.0,98,0.00,,,0.59,,2013-06-06 11:52:00,
2013-06-06 08:03:00,62.0,61.0,29.03,North,0,0.0,6.0,98,0.00,,,0.59,,2013-06-06 12:03:00,
2013-06-06 08:13:00,62.0,61.0,29.03,North,0,0.0,6.0,98,0.00,,,0.59,,2013-06-06 12:13:00,
2013-06-06 08:23:00,63.0,62.0,29.03,North,0,0.0,0.0,98,0.00,,,0.59,,2013-06-06 12:23:00,
2013-06-06 08:33:00,63.0,62.0,29.03,North,0,0.0,0.0,98,0.00,,,0.59,,2013-06-06 12:33:00,
2013-06-06 08:43:00,63.0,62.0,29.03,North,0,0.0,0.0,98,0.00,,,0.59,,2013-06-06 12:43:00,
2013-06-06 08:53:00,63.0,62.0,29.03,North,0,0.0,0.0,98,0.00,,,0.59,,2013-06-06 12:53:00,
2013-06-06 09:03:00,66.0,65.0,29.03,North,0,0.0,0.0,98,0.00,,,0.59,,2013-06-06 13:03:00,
2013-06-06 09:13:00,66.0,65.0,29.03,North,0,0.0,0.0,98,0.00,,,0.59,,2013-06-06 13:13:00,
2013-06-06 09:23:00,66.0,65.0,29.03,North,0,0.0,0.0,98,0.00,,,0.59,,2013-06-06 13:23:00,
2013-06-06 09:33:00,67.0,66.0,29.03,North,0,0.0,0.0,97,0.00,,,0.59,,2013-06-06 13:33:00,
2013-06-06 09:43:00,67.0,66.0,29.03,North,0,0.0,0.0,97,0.00,,,0.59,,2013-06-06 13:43:00,
2013-06-06 09:52:00,67.0,66.0,29.06,North,0,0.0,5.0,96,0.00,,,0.59,,2013-06-06 13:52:00,
2013-06-06 10:03:00,67.0,66.0,29.06,North,0,0.0,5.0,96,0.00,,,0.59,,2013-06-06 14:03:00,
2013-06-06 10:13:00,67.0,66.0,29.06,North,0,0.0,5.0,96,0.00,,,0.59,,2013-06-06 14:13:00,
2013-06-06 10:23:00,68.0,67.0,29.06,North,0,0.0,0.0,95,0.00,,,0.59,,2013-06-06 14:23:00,
2013-06-06 10:33:00,71.0,66.0,29.06,NNW,330,4.0,6.0,85,0.00,,,0.59,,2013-06-06 14:33:00,
2013-06-06 10:43:00,71.0,66.0,29.06,NNW,330,4.0,6.0,85,0.00,,,0.59,,2013-06-06 14:43:00,
2013-06-06 10:52:00,80.0,69.0,29.03,North,0,0.0,6.0,69,0.00,,,0.59,,2013-06-06 14:52:00,
2013-06-06 11:03:00,79.0,64.0,29.03,North,0,0.0,7.0,60,0.00,,,0.59,,2013-06-06 15:03:00,
2013-06-06 11:23:00,77.0,65.0,29.06,North,352,3.0,5.0,66,0.00,,,0.59,,2013-06-06 15:23:00,
2013-06-06 12:03:00,76.0,66.0,29.03,North,0,0.0,5.0,71,0.00,,,0.59,,2013-06-06 16:03:00,
2013-06-06 12:13:00,76.0,66.0,29.03,North,0,0.0,5.0,71,0.00,,,0.59,,2013-06-06 16:13:00,
2013-06-06 12:23:00,76.0,66.0,29.03,North,0,0.0,5.0,71,0.00,,,0.59,,2013-06-06 16:23:00,
2013-06-06 12:33:00,78.0,66.0,29.03,North,0,0.0,5.0,66,0.00,,,0.59,,2013-06-06 16:33:00,
2013-06-06 12:44:00,78.0,66.0,29.03,North,0,0.0,5.0,66,0.00,,,0.59,,2013-06-06 16:44:00,
2013-06-06 12:53:00,76.0,65.0,29.03,NNW,328,5.0,8.0,69,0.00,,,0.59,,2013-06-06 16:53:00,
2013-06-06 13:03:00,76.0,65.0,29.03,NNW,328,5.0,8.0,69,0.00,,,0.59,,2013-06-06 17:03:00,
2013-06-06 13:13:00,76.0,65.0,29.03,NNW,328,5.0,8.0,69,0.00,,,0.59,,2013-06-06 17:13:00,
2013-06-06 13:23:00,78.0,67.0,29.00,NW,313,4.0,7.0,69,0.00,,,0.59,,2013-06-06 17:23:00,
2013-06-06 13:33:00,78.0,67.0,29.00,NW,313,4.0,7.0,69,0.00,,,0.59,,2013-06-06 17:33:00,
2013-06-06 13:43:00,78.0,67.0,29.00,NW,313,4.0,7.0,69,0.00,,,0.59,,2013-06-06 17:43:00,
2013-06-06 13:52:00,81.0,65.0,29.00,NNW,343,3.0,7.0,58,0.00,,,0.59,,2013-06-06 17:52:00,
2013-06-06 14:13:00,81.0,65.0,29.00,NNW,343,3.0,7.0,58,0.00,,,0.59,,2013-06-06 18:13:00,
2013-06-06 14:23:00,85.0,66.0,29.00,NE,36,4.0,7.0,54,0.00,,,0.59,,2013-06-06 18:23:00,
2013-06-06 14:33:00,84.0,64.0,29.00,ENE,66,4.0,11.0,51,0.00,,,0.59,,2013-06-06 18:33:00,
2013-06-06 14:43:00,84.0,64.0,29.00,ENE,66,4.0,11.0,51,0.00,,,0.59,,2013-06-06 18:43:00,
2013-06-06 14:53:00,84.0,64.0,29.00,ENE,66,4.0,11.0,51,0.00,,,0.59,,2013-06-06 18:53:00,
2013-06-06 15:03:00,85.0,62.0,28.97,ENE,60,6.0,9.0,47,0.00,,,0.59,,2013-06-06 19:03:00,
2013-06-06 15:33:00,85.0,64.0,28.97,ENE,67,4.0,7.0,49,0.00,,,0.59,,2013-06-06 19:33:00,
2013-06-06 15:43:00,85.0,64.0,28.97,ENE,67,4.0,7.0,49,0.00,,,0.59,,2013-06-06 19:43:00,
2013-06-06 15:53:00,85.0,62.0,28.97,ENE,64,4.0,9.0,47,0.00,,,0.59,,2013-06-06 19:53:00,
2013-06-06 16:03:00,85.0,63.0,28.97,ENE,63,6.0,8.0,48,0.00,,,0.59,,2013-06-06 20:03:00,
2013-06-06 16:23:00,85.0,64.0,28.97,ENE,73,5.0,7.0,50,0.00,,,0.55,,2013-06-06 20:23:00,
2013-06-06 16:33:00,85.0,64.0,28.94,ENE,66,5.0,7.0,49,0.00,,,0.39,,2013-06-06 20:33:00,
2013-06-06 16:53:00,84.0,63.0,28.94,ENE,65,3.0,7.0,49,0.00,,,0.31,,2013-06-06 20:53:00,
2013-06-06 17:03:00,84.0,63.0,28.94,ENE,65,3.0,7.0,49,0.00,,,0.31,,2013-06-06 21:03:00,
2013-06-06 17:13:00,84.0,63.0,28.94,ENE,65,3.0,7.0,49,0.00,,,0.31,,2013-06-06 21:13:00,
2013-06-06 17:23:00,84.0,63.0,28.94,ENE,65,3.0,7.0,49,0.00,,,0.31,,2013-06-06 21:23:00,
2013-06-06 17:53:00,81.0,63.0,28.94,NE,47,4.0,7.0,54,0.00,,,0.08,,2013-06-06 21:53:00,
2013-06-06 18:03:00,81.0,63.0,28.91,NE,46,4.0,7.0,55,0.00,,,0.08,,2013-06-06 22:03:00,
2013-06-06 18:13:00,81.0,63.0,28.91,NE,46,4.0,7.0,55,0.00,,,0.08,,2013-06-06 22:13:00,
2013-06-06 18:23:00,82.0,64.0,28.91,ENE,59,4.0,7.0,54,0.00,,,0.08,,2013-06-06 22:23:00,
2013-06-06 18:33:00,82.0,63.0,28.91,ENE,67,6.0,9.0,53,0.00,,,0.04,,2013-06-06 22:33:00,
2013-06-06 18:43:00,82.0,63.0,28.91,ENE,67,6.0,9.0,53,0.00,,,0.04,,2013-06-06 22:43:00,
2013-06-06 18:53:00,81.0,63.0,28.91,NE,43,4.0,7.0,54,0.00,,,0.04,,2013-06-06 22:53:00,
2013-06-06 19:03:00,81.0,63.0,28.91,NE,43,4.0,7.0,54,0.00,,,0.04,,2013-06-06 23:03:00,
2013-06-06 19:13:00,81.0,63.0,28.91,NE,43,4.0,7.0,54,0.00,,,0.04,,2013-06-06 23:13:00,
2013-06-06 19:22:00,80.0,65.0,28.91,North,0,0.0,0.0,61,0.00,,,0.04,,2013-06-06 23:22:00,
2013-06-06 19:33:00,80.0,65.0,28.91,North,0,0.0,0.0,61,0.00,,,0.04,,2013-06-06 23:33:00,
2013-06-06 19:43:00,80.0,65.0,28.91,North,0,0.0,0.0,61,0.00,,,0.04,,2013-06-06 23:43:00,
2013-06-06 19:52:00,80.0,65.0,28.91,North,0,0.0,0.0,61,0.00,,,0.04,,2013-06-06 23:52:00,
2013-06-06 20:02:00,76.0,67.0,28.91,North,0,0.0,4.0,73,0.00,,,0.04,,2013-06-07 00:02:00,
2013-06-06 20:13:00,76.0,67.0,28.91,North,0,0.0,4.0,73,0.00,,,0.04,,2013-06-07 00:13:00,
2013-06-06 20:22:00,76.0,65.0,28.91,North,0,0.0,4.0,68,0.00,,,0.00,,2013-06-07 00:22:00,
2013-06-06 20:32:00,75.0,66.0,28.91,North,0,0.0,0.0,73,0.00,,,0.00,,2013-06-07 00:32:00,
2013-06-06 20:42:00,75.0,66.0,28.91,North,0,0.0,0.0,73,0.00,,,0.00,,2013-06-07 00:42:00,
2013-06-06 20:52:00,73.0,66.0,28.91,North,0,0.0,0.0,79,0.00,,,0.00,,2013-06-07 00:52:00,
2013-06-06 21:03:00,72.0,66.0,28.91,North,0,0.0,0.0,82,0.00,,,0.00,,2013-06-07 01:03:00,
2013-06-06 21:12:00,72.0,66.0,28.91,North,0,0.0,0.0,82,0.00,,,0.00,,2013-06-07 01:12:00,
2013-06-06 21:22:00,71.0,66.0,28.91,North,0,0.0,0.0,83,0.00,,,0.00,,2013-06-07 01:22:00,
2013-06-06 21:32:00,71.0,66.0,28.91,North,0,0.0,0.0,85,0.00,,,0.00,,2013-06-07 01:32:00,
2013-06-06 21:42:00,71.0,66.0,28.91,North,0,0.0,0.0,85,0.00,,,0.00,,2013-06-07 01:42:00,
2013-06-06 21:52:00,71.0,68.0,28.91,North,0,0.0,0.0,90,0.00,,,0.00,,2013-06-07 01:52:00,
2013-06-06 22:02:00,71.0,68.0,28.91,North,0,0.0,0.0,89,0.00,,,0.00,,2013-06-07 02:02:00,
2013-06-06 22:12:00,71.0,68.0,28.91,North,0,0.0,0.0,89,0.00,,,0.00,,2013-06-07 02:12:00,
2013-06-06 22:22:00,70.0,67.0,28.91,North,0,0.0,0.0,90,0.00,,,0.00,,2013-06-07 02:22:00,
2013-06-06 22:32:00,71.0,67.0,28.91,ENE,78,3.0,4.0,88,0.00,,,0.00,,2013-06-07 02:32:00,
2013-06-06 22:42:00,71.0,67.0,28.91,ENE,78,3.0,4.0,88,0.00,,,0.00,,2013-06-07 02:42:00,
2013-06-06 22:52:00,71.0,67.0,28.94,North,0,0.0,0.0,88,0.00,,,0.00,,2013-06-07 02:52:00,
2013-06-06 23:02:00,71.0,67.0,28.94,North,0,0.0,5.0,87,0.00,,,0.00,,2013-06-07 03:02:00,
2013-06-06 23:12:00,71.0,67.0,28.94,North,0,0.0,5.0,87,0.00,,,0.00,,2013-06-07 03:12:00,
2013-06-06 23:22:00,69.0,65.0,28.94,North,0,0.0,5.0,88,0.04,,,0.04,,2013-06-07 03:22:00,
2013-06-06 23:33:00,67.0,64.0,28.94,North,0,0.0,4.0,90,0.16,,,0.16,,2013-06-07 03:33:00,
2013-06-06 23:43:00,67.0,64.0,28.94,North,0,0.0,4.0,90,0.16,,,0.16,,2013-06-07 03:43:00,
2013-06-06 23:53:00,67.0,64.0,28.94,North,0,0.0,4.0,90,0.16,,,0.16,,2013-06-07 03:53:00,